Aviation Digital Data Service (ADDS)

Output produced by METARs form (2107 UTC 24 March 2019)
found at http://www.aviationweather.gov/metar/data/
 
VVDN 242100Z 33003KT 7000 FEW012 BKN060 23/22 Q1013 NOSIG
TAF VVDN 241700Z 2418/2518 34006KT 6000 SCT012 BKN060 
     TEMPO 2418/2424 4000 RA BR
       
VVNB 242100Z 02009KT 5000 BR SCT005 BKN020 16/16 Q1016 NOSIG
TAF VVNB 241700Z 2418/2518 05007KT 6000 SCT015 BKN030 
     TEMPO 2421/2502 3500 RA BR BKN012 OVC030
       
VVTS 242100Z 10006KT 9999 SCT017 28/23 Q1009 NOSIG
TAF VVTS 241700Z 2418/2524 11009KT 9999 SCT017 
     TEMPO 2506/2510 14015G28KT TS BKN015 FEW017CB BKN040